sensor_id;sensor_type;location;lat;lon;timestamp;pressure;altitude;pressure_sealevel;temperature;humidity
75996;BME280;64681;49.738;9.004;2023-06-22T00:00:58;99488.94;;;21.19;76.28
75996;BME280;64681;49.738;9.004;2023-06-22T00:03:25;99474.63;;;21.15;76.46
75996;BME280;64681;49.738;9.004;2023-06-22T00:05:51;99486.59;;;21.21;76.27
75996;BME280;64681;49.738;9.004;2023-06-22T00:08:17;99472.19;;;21.24;76.02
75996;BME280;64681;49.738;9.004;2023-06-22T00:10:44;99471.56;;;21.06;76.99
75996;BME280;64681;49.738;9.004;2023-06-22T00:13:10;99461.56;;;20.95;76.90
75996;BME280;64681;49.738;9.004;2023-06-22T00:15:43;99463.00;;;21.11;76.54
75996;BME280;64681;49.738;9.004;2023-06-22T00:18:12;99471.25;;;20.96;76.93
75996;BME280;64681;49.738;9.004;2023-06-22T00:20:38;99485.56;;;20.97;77.18
75996;BME280;64681;49.738;9.004;2023-06-22T00:23:06;99488.66;;;21.02;77.11
75996;BME280;64681;49.738;9.004;2023-06-22T00:25:38;99488.22;;;21.08;77.00
75996;BME280;64681;49.738;9.004;2023-06-22T00:28:06;99486.72;;;21.03;77.44
75996;BME280;64681;49.738;9.004;2023-06-22T00:30:33;99495.59;;;21.11;76.75
75996;BME280;64681;49.738;9.004;2023-06-22T00:32:59;99490.19;;;21.07;76.83
75996;BME280;64681;49.738;9.004;2023-06-22T00:35:26;99482.41;;;21.09;76.43
75996;BME280;64681;49.738;9.004;2023-06-22T00:37:55;99476.25;;;20.98;76.52
75996;BME280;64681;49.738;9.004;2023-06-22T00:40:32;99507.59;;;21.13;76.71
75996;BME280;64681;49.738;9.004;2023-06-22T00:42:58;99502.13;;;21.17;76.44
75996;BME280;64681;49.738;9.004;2023-06-22T00:45:24;99506.81;;;21.16;76.45
75996;BME280;64681;49.738;9.004;2023-06-22T00:47:56;99520.38;;;21.16;76.38
75996;BME280;64681;49.738;9.004;2023-06-22T00:50:23;99540.88;;;21.28;75.93
75996;BME280;64681;49.738;9.004;2023-06-22T00:52:55;99549.00;;;21.28;75.95
75996;BME280;64681;49.738;9.004;2023-06-22T00:55:25;99543.94;;;21.34;75.36
75996;BME280;64681;49.738;9.004;2023-06-22T00:57:52;99566.38;;;21.42;75.39
75996;BME280;64681;49.738;9.004;2023-06-22T01:00:23;99578.78;;;21.46;75.39
75996;BME280;64681;49.738;9.004;2023-06-22T01:02:51;99586.88;;;21.54;74.62
75996;BME280;64681;49.738;9.004;2023-06-22T01:05:22;99595.06;;;21.46;75.00
75996;BME280;64681;49.738;9.004;2023-06-22T01:10:43;99687.81;;;21.52;75.19
75996;BME280;64681;49.738;9.004;2023-06-22T01:16:14;99794.94;;;21.58;75.14
75996;BME280;64681;49.738;9.004;2023-06-22T01:18:43;99810.88;;;21.45;75.46
75996;BME280;64681;49.738;9.004;2023-06-22T01:21:14;99832.19;;;21.54;75.18
75996;BME280;64681;49.738;9.004;2023-06-22T01:23:53;99846.59;;;21.44;75.52
75996;BME280;64681;49.738;9.004;2023-06-22T01:29:15;99822.84;;;21.70;73.10
75996;BME280;64681;49.738;9.004;2023-06-22T01:31:44;99715.22;;;20.54;78.55
75996;BME280;64681;49.738;9.004;2023-06-22T01:34:11;99635.44;;;20.30;81.04
75996;BME280;64681;49.738;9.004;2023-06-22T01:36:39;99588.84;;;20.64;79.51
75996;BME280;64681;49.738;9.004;2023-06-22T01:39:06;99587.28;;;20.63;80.31
75996;BME280;64681;49.738;9.004;2023-06-22T01:41:37;99511.50;;;20.02;82.18
75996;BME280;64681;49.738;9.004;2023-06-22T01:44:05;99343.38;;;20.16;82.40
75996;BME280;64681;49.738;9.004;2023-06-22T01:46:34;99314.44;;;19.99;82.60
75996;BME280;64681;49.738;9.004;2023-06-22T01:49:02;99356.66;;;19.96;82.70
75996;BME280;64681;49.738;9.004;2023-06-22T01:51:29;99402.34;;;19.83;85.29
75996;BME280;64681;49.738;9.004;2023-06-22T01:53:55;99369.44;;;19.85;84.82
75996;BME280;64681;49.738;9.004;2023-06-22T01:56:21;99345.06;;;19.74;84.19
75996;BME280;64681;49.738;9.004;2023-06-22T01:59:17;99415.50;;;19.81;84.92
75996;BME280;64681;49.738;9.004;2023-06-22T02:01:57;99431.72;;;20.14;83.41
75996;BME280;64681;49.738;9.004;2023-06-22T02:04:33;99465.81;;;20.07;83.77
75996;BME280;64681;49.738;9.004;2023-06-22T02:07:05;99490.97;;;20.12;84.15
75996;BME280;64681;49.738;9.004;2023-06-22T02:09:36;99482.03;;;20.22;83.34
75996;BME280;64681;49.738;9.004;2023-06-22T02:12:05;99480.09;;;20.22;84.03
75996;BME280;64681;49.738;9.004;2023-06-22T02:14:34;99483.91;;;20.32;83.56
75996;BME280;64681;49.738;9.004;2023-06-22T02:17:00;99478.16;;;20.27;83.86
75996;BME280;64681;49.738;9.004;2023-06-22T02:19:27;99490.16;;;20.29;83.84
75996;BME280;64681;49.738;9.004;2023-06-22T02:21:52;99480.88;;;20.27;83.40
75996;BME280;64681;49.738;9.004;2023-06-22T02:24:18;99492.06;;;20.32;83.40
75996;BME280;64681;49.738;9.004;2023-06-22T02:26:43;99512.56;;;20.37;83.28
75996;BME280;64681;49.738;9.004;2023-06-22T02:29:11;99509.47;;;20.42;82.96
75996;BME280;64681;49.738;9.004;2023-06-22T02:31:36;99518.38;;;20.46;82.77
75996;BME280;64681;49.738;9.004;2023-06-22T02:34:02;99530.00;;;20.43;82.80
75996;BME280;64681;49.738;9.004;2023-06-22T02:36:29;99548.63;;;20.41;83.27
75996;BME280;64681;49.738;9.004;2023-06-22T02:38:57;99533.91;;;20.31;83.56
75996;BME280;64681;49.738;9.004;2023-06-22T02:41:26;99536.97;;;20.40;83.13
75996;BME280;64681;49.738;9.004;2023-06-22T02:43:52;99531.13;;;20.53;82.79
75996;BME280;64681;49.738;9.004;2023-06-22T02:46:17;99535.44;;;20.32;83.68
75996;BME280;64681;49.738;9.004;2023-06-22T02:48:43;99550.50;;;20.48;83.13
75996;BME280;64681;49.738;9.004;2023-06-22T02:51:09;99554.38;;;20.47;82.77
75996;BME280;64681;49.738;9.004;2023-06-22T02:53:35;99534.28;;;20.33;82.97
75996;BME280;64681;49.738;9.004;2023-06-22T02:56:02;99529.28;;;20.21;83.32
75996;BME280;64681;49.738;9.004;2023-06-22T02:58:32;99534.34;;;20.08;83.83
75996;BME280;64681;49.738;9.004;2023-06-22T03:01:04;99532.06;;;19.96;84.38
75996;BME280;64681;49.738;9.004;2023-06-22T03:03:31;99525.44;;;20.11;83.70
75996;BME280;64681;49.738;9.004;2023-06-22T03:05:57;99524.63;;;20.18;83.37
75996;BME280;64681;49.738;9.004;2023-06-22T03:08:28;99538.53;;;20.38;83.05
75996;BME280;64681;49.738;9.004;2023-06-22T03:11:04;99514.94;;;20.17;83.67
75996;BME280;64681;49.738;9.004;2023-06-22T03:13:48;99514.19;;;20.23;83.35
75996;BME280;64681;49.738;9.004;2023-06-22T03:16:14;99507.22;;;20.12;83.18
75996;BME280;64681;49.738;9.004;2023-06-22T03:18:40;99505.28;;;20.08;83.03
75996;BME280;64681;49.738;9.004;2023-06-22T03:21:07;99519.59;;;20.20;82.58
75996;BME280;64681;49.738;9.004;2023-06-22T03:23:32;99525.44;;;20.00;83.25
75996;BME280;64681;49.738;9.004;2023-06-22T03:25:58;99509.59;;;19.70;84.72
75996;BME280;64681;49.738;9.004;2023-06-22T03:28:24;99504.53;;;19.83;84.12
75996;BME280;64681;49.738;9.004;2023-06-22T03:30:50;99511.16;;;19.89;84.14
75996;BME280;64681;49.738;9.004;2023-06-22T03:33:16;99509.59;;;19.95;83.88
75996;BME280;64681;49.738;9.004;2023-06-22T03:35:42;99497.56;;;20.03;83.54
75996;BME280;64681;49.738;9.004;2023-06-22T03:38:10;99509.19;;;20.11;83.84
75996;BME280;64681;49.738;9.004;2023-06-22T03:40:36;99501.41;;;20.09;83.67
75996;BME280;64681;49.738;9.004;2023-06-22T03:43:01;99501.03;;;20.15;83.88
75996;BME280;64681;49.738;9.004;2023-06-22T03:45:27;99505.31;;;19.98;84.97
75996;BME280;64681;49.738;9.004;2023-06-22T03:47:54;99509.56;;;20.09;84.46
75996;BME280;64681;49.738;9.004;2023-06-22T03:50:20;99499.88;;;20.08;84.58
75996;BME280;64681;49.738;9.004;2023-06-22T03:52:46;99497.50;;;20.29;83.83
75996;BME280;64681;49.738;9.004;2023-06-22T03:55:12;99501.34;;;20.35;83.47
75996;BME280;64681;49.738;9.004;2023-06-22T03:57:37;99481.97;;;20.36;83.00
75996;BME280;64681;49.738;9.004;2023-06-22T04:00:03;99489.69;;;20.45;82.98
75996;BME280;64681;49.738;9.004;2023-06-22T04:02:31;99507.47;;;20.53;82.51
75996;BME280;64681;49.738;9.004;2023-06-22T04:04:56;99490.13;;;20.33;82.92
75996;BME280;64681;49.738;9.004;2023-06-22T04:07:23;99502.91;;;20.32;83.12
75996;BME280;64681;49.738;9.004;2023-06-22T04:09:49;99507.59;;;20.24;83.41
75996;BME280;64681;49.738;9.004;2023-06-22T04:12:14;99492.84;;;20.29;82.72
75996;BME280;64681;49.738;9.004;2023-06-22T04:14:39;99511.41;;;20.38;82.94
75996;BME280;64681;49.738;9.004;2023-06-22T04:17:05;99511.38;;;20.52;82.57
75996;BME280;64681;49.738;9.004;2023-06-22T04:19:31;99519.09;;;20.61;82.26
75996;BME280;64681;49.738;9.004;2023-06-22T04:21:56;99507.88;;;20.55;82.58
75996;BME280;64681;49.738;9.004;2023-06-22T04:24:22;99518.66;;;20.74;82.45
75996;BME280;64681;49.738;9.004;2023-06-22T04:26:47;99517.47;;;20.82;82.59
75996;BME280;64681;49.738;9.004;2023-06-22T04:29:13;99503.47;;;20.91;82.09
75996;BME280;64681;49.738;9.004;2023-06-22T04:31:39;99513.34;;;21.23;81.41
75996;BME280;64681;49.738;9.004;2023-06-22T04:34:06;99506.22;;;21.43;80.84
75996;BME280;64681;49.738;9.004;2023-06-22T04:36:36;99481.53;;;21.23;80.89
75996;BME280;64681;49.738;9.004;2023-06-22T04:39:07;99511.78;;;21.78;77.12
75996;BME280;64681;49.738;9.004;2023-06-22T04:41:35;99515.50;;;21.46;79.04
75996;BME280;64681;49.738;9.004;2023-06-22T04:44:13;99498.59;;;21.76;78.37
75996;BME280;64681;49.738;9.004;2023-06-22T04:46:40;99507.56;;;22.11;78.36
75996;BME280;64681;49.738;9.004;2023-06-22T04:49:08;99504.56;;;22.40;77.22
75996;BME280;64681;49.738;9.004;2023-06-22T04:51:40;99494.63;;;22.57;76.16
75996;BME280;64681;49.738;9.004;2023-06-22T04:54:08;99502.41;;;22.86;75.71
75996;BME280;64681;49.738;9.004;2023-06-22T04:56:34;99488.69;;;22.93;73.23
75996;BME280;64681;49.738;9.004;2023-06-22T04:59:04;99488.28;;;22.95;73.64
75996;BME280;64681;49.738;9.004;2023-06-22T05:01:39;99472.72;;;22.96;73.62
75996;BME280;64681;49.738;9.004;2023-06-22T05:04:31;99498.38;;;23.26;72.97
75996;BME280;64681;49.738;9.004;2023-06-22T05:07:24;99491.03;;;23.46;72.11
75996;BME280;64681;49.738;9.004;2023-06-22T05:09:57;99470.13;;;23.39;70.73
75996;BME280;64681;49.738;9.004;2023-06-22T05:12:45;99490.28;;;23.46;70.82
75996;BME280;64681;49.738;9.004;2023-06-22T05:15:19;99472.69;;;23.50;70.23
75996;BME280;64681;49.738;9.004;2023-06-22T05:17:47;99475.72;;;23.32;70.69
75996;BME280;64681;49.738;9.004;2023-06-22T05:20:15;99486.25;;;23.54;70.47
75996;BME280;64681;49.738;9.004;2023-06-22T05:22:43;99484.00;;;23.93;69.71
75996;BME280;64681;49.738;9.004;2023-06-22T05:25:10;99486.56;;;23.80;68.80
75996;BME280;64681;49.738;9.004;2023-06-22T05:27:36;99469.66;;;23.45;69.40
75996;BME280;64681;49.738;9.004;2023-06-22T05:30:05;99462.03;;;23.80;68.85
75996;BME280;64681;49.738;9.004;2023-06-22T05:32:49;99472.41;;;23.89;68.83
75996;BME280;64681;49.738;9.004;2023-06-22T05:35:15;99453.06;;;24.23;68.12
75996;BME280;64681;49.738;9.004;2023-06-22T05:37:40;99451.38;;;24.66;65.81
75996;BME280;64681;49.738;9.004;2023-06-22T05:40:10;99439.75;;;24.62;65.40
75996;BME280;64681;49.738;9.004;2023-06-22T05:42:44;99465.59;;;24.57;65.61
75996;BME280;64681;49.738;9.004;2023-06-22T05:45:25;99462.63;;;25.21;63.41
75996;BME280;64681;49.738;9.004;2023-06-22T05:47:56;99438.78;;;25.55;63.19
75996;BME280;64681;49.738;9.004;2023-06-22T05:50:25;99447.34;;;25.99;62.07
75996;BME280;64681;49.738;9.004;2023-06-22T05:52:53;99474.66;;;26.45;60.21
75996;BME280;64681;49.738;9.004;2023-06-22T05:56:22;99469.31;;;26.54;59.84
75996;BME280;64681;49.738;9.004;2023-06-22T06:00:02;99471.41;;;26.89;59.08
75996;BME280;64681;49.738;9.004;2023-06-22T06:03:30;99461.72;;;27.23;58.15
75996;BME280;64681;49.738;9.004;2023-06-22T06:52:46;99411.88;;;38.97;31.96
75996;BME280;64681;49.738;9.004;2023-06-22T06:55:12;99430.50;;;39.65;32.86
75996;BME280;64681;49.738;9.004;2023-06-22T06:57:41;99441.06;;;40.64;31.00
75996;BME280;64681;49.738;9.004;2023-06-22T07:00:13;99434.25;;;39.35;30.00
75996;BME280;64681;49.738;9.004;2023-06-22T07:03:07;99439.13;;;39.09;30.97
75996;BME280;64681;49.738;9.004;2023-06-22T07:05:56;99428.88;;;39.18;30.26
75996;BME280;64681;49.738;9.004;2023-06-22T07:08:23;99433.97;;;39.71;30.13
75996;BME280;64681;49.738;9.004;2023-06-22T07:11:03;99400.94;;;40.02;29.49
75996;BME280;64681;49.738;9.004;2023-06-22T07:13:36;99412.25;;;40.10;28.72
75996;BME280;64681;49.738;9.004;2023-06-22T07:16:04;99416.31;;;40.68;29.32
75996;BME280;64681;49.738;9.004;2023-06-22T07:18:30;99410.28;;;41.25;28.72
75996;BME280;64681;49.738;9.004;2023-06-22T07:21:00;99403.69;;;40.88;28.06
75996;BME280;64681;49.738;9.004;2023-06-22T07:23:52;99407.69;;;39.80;28.90
75996;BME280;64681;49.738;9.004;2023-06-22T07:26:20;99386.44;;;38.81;30.96
75996;BME280;64681;49.738;9.004;2023-06-22T07:28:54;99411.22;;;39.29;30.43
75996;BME280;64681;49.738;9.004;2023-06-22T07:31:45;99387.25;;;39.98;29.20
75996;BME280;64681;49.738;9.004;2023-06-22T07:34:28;99387.22;;;40.17;28.88
75996;BME280;64681;49.738;9.004;2023-06-22T07:36:54;99402.16;;;40.87;27.63
75996;BME280;64681;49.738;9.004;2023-06-22T07:39:21;99380.38;;;39.53;29.54
75996;BME280;64681;49.738;9.004;2023-06-22T07:42:00;99367.50;;;39.31;29.54
75996;BME280;64681;49.738;9.004;2023-06-22T07:44:46;99378.81;;;38.07;31.92
75996;BME280;64681;49.738;9.004;2023-06-22T07:47:16;99380.84;;;38.81;31.14
75996;BME280;64681;49.738;9.004;2023-06-22T07:49:48;99383.38;;;38.60;31.10
75996;BME280;64681;49.738;9.004;2023-06-22T07:52:16;99375.72;;;38.41;31.75
75996;BME280;64681;49.738;9.004;2023-06-22T07:54:42;99377.66;;;36.66;33.54
75996;BME280;64681;49.738;9.004;2023-06-22T07:57:27;99377.72;;;35.52;35.42
75996;BME280;64681;49.738;9.004;2023-06-22T08:00:03;99372.72;;;34.79;37.29
75996;BME280;64681;49.738;9.004;2023-06-22T08:02:33;99367.41;;;35.92;35.46
75996;BME280;64681;49.738;9.004;2023-06-22T08:04:59;99382.97;;;35.22;36.36
75996;BME280;64681;49.738;9.004;2023-06-22T08:07:25;99376.50;;;35.59;35.95
75996;BME280;64681;49.738;9.004;2023-06-22T08:09:50;99378.00;;;36.39;35.45
75996;BME280;64681;49.738;9.004;2023-06-22T08:12:16;99375.94;;;34.66;36.57
75996;BME280;64681;49.738;9.004;2023-06-22T08:14:42;99391.13;;;34.82;36.69
75996;BME280;64681;49.738;9.004;2023-06-22T08:17:09;99393.25;;;33.33;39.70
75996;BME280;64681;49.738;9.004;2023-06-22T08:19:36;99388.78;;;34.25;38.57
75996;BME280;64681;49.738;9.004;2023-06-22T08:22:02;99382.53;;;35.40;36.00
75996;BME280;64681;49.738;9.004;2023-06-22T08:24:28;99385.59;;;35.76;35.61
75996;BME280;64681;49.738;9.004;2023-06-22T08:26:55;99367.78;;;35.11;36.67
75996;BME280;64681;49.738;9.004;2023-06-22T08:29:21;99379.53;;;34.83;37.38
75996;BME280;64681;49.738;9.004;2023-06-22T08:31:46;99381.81;;;35.51;36.71
75996;BME280;64681;49.738;9.004;2023-06-22T08:34:12;99381.81;;;36.13;36.24
75996;BME280;64681;49.738;9.004;2023-06-22T08:36:37;99349.72;;;36.18;34.93
75996;BME280;64681;49.738;9.004;2023-06-22T08:39:10;99356.59;;;36.93;34.57
75996;BME280;64681;49.738;9.004;2023-06-22T08:41:36;99364.13;;;36.17;34.44
75996;BME280;64681;49.738;9.004;2023-06-22T08:44:02;99359.31;;;35.49;35.61
75996;BME280;64681;49.738;9.004;2023-06-22T08:46:29;99358.53;;;36.22;34.98
75996;BME280;64681;49.738;9.004;2023-06-22T08:48:57;99369.25;;;36.77;34.40
75996;BME280;64681;49.738;9.004;2023-06-22T08:51:23;99374.72;;;36.41;35.17
75996;BME280;64681;49.738;9.004;2023-06-22T08:53:53;99370.16;;;36.43;34.52
75996;BME280;64681;49.738;9.004;2023-06-22T08:56:19;99364.44;;;37.67;32.81
75996;BME280;64681;49.738;9.004;2023-06-22T08:58:44;99364.88;;;38.38;31.59
75996;BME280;64681;49.738;9.004;2023-06-22T09:01:10;99364.72;;;37.27;33.34
75996;BME280;64681;49.738;9.004;2023-06-22T09:03:35;99368.38;;;37.83;32.22
75996;BME280;64681;49.738;9.004;2023-06-22T09:06:03;99355.28;;;37.36;33.43
75996;BME280;64681;49.738;9.004;2023-06-22T09:08:28;99355.28;;;35.78;35.62
75996;BME280;64681;49.738;9.004;2023-06-22T09:10:53;99348.53;;;36.72;33.84
75996;BME280;64681;49.738;9.004;2023-06-22T09:13:19;99356.69;;;36.65;35.47
75996;BME280;64681;49.738;9.004;2023-06-22T09:15:44;99354.72;;;36.42;34.37
75996;BME280;64681;49.738;9.004;2023-06-22T09:18:10;99343.53;;;37.18;33.70
75996;BME280;64681;49.738;9.004;2023-06-22T09:20:36;99353.31;;;37.36;33.42
75996;BME280;64681;49.738;9.004;2023-06-22T09:23:05;99341.84;;;36.34;35.17
75996;BME280;64681;49.738;9.004;2023-06-22T09:25:30;99348.19;;;36.17;35.27
75996;BME280;64681;49.738;9.004;2023-06-22T09:27:56;99332.66;;;36.62;34.20
75996;BME280;64681;49.738;9.004;2023-06-22T09:30:22;99333.59;;;36.81;34.20
75996;BME280;64681;49.738;9.004;2023-06-22T09:32:48;99336.59;;;37.36;32.58
75996;BME280;64681;49.738;9.004;2023-06-22T09:35:13;99332.44;;;37.07;33.37
75996;BME280;64681;49.738;9.004;2023-06-22T09:37:40;99345.56;;;36.53;34.19
75996;BME280;64681;49.738;9.004;2023-06-22T09:40:07;99326.94;;;37.43;32.82
75996;BME280;64681;49.738;9.004;2023-06-22T09:42:37;99335.50;;;37.45;33.71
75996;BME280;64681;49.738;9.004;2023-06-22T09:45:04;99337.06;;;36.17;35.91
75996;BME280;64681;49.738;9.004;2023-06-22T09:47:29;99323.72;;;35.42;36.70
75996;BME280;64681;49.738;9.004;2023-06-22T09:49:55;99329.78;;;35.57;35.90
75996;BME280;64681;49.738;9.004;2023-06-22T09:52:21;99328.16;;;34.94;38.13
75996;BME280;64681;49.738;9.004;2023-06-22T09:54:47;99317.19;;;34.73;37.36
75996;BME280;64681;49.738;9.004;2023-06-22T09:57:12;99319.84;;;34.45;38.98
75996;BME280;64681;49.738;9.004;2023-06-22T09:59:38;99318.66;;;34.57;39.23
75996;BME280;64681;49.738;9.004;2023-06-22T10:02:06;99301.25;;;33.43;40.91
75996;BME280;64681;49.738;9.004;2023-06-22T10:04:34;99300.53;;;32.19;42.70
75996;BME280;64681;49.738;9.004;2023-06-22T10:07:01;99302.78;;;32.00;43.23
75996;BME280;64681;49.738;9.004;2023-06-22T10:09:26;99295.00;;;32.19;42.84
75996;BME280;64681;49.738;9.004;2023-06-22T10:11:52;99279.31;;;32.25;44.17
75996;BME280;64681;49.738;9.004;2023-06-22T10:14:17;99270.25;;;32.66;42.63
75996;BME280;64681;49.738;9.004;2023-06-22T10:16:43;99262.31;;;31.97;43.47
75996;BME280;64681;49.738;9.004;2023-06-22T10:19:08;99262.81;;;32.51;44.16
75996;BME280;64681;49.738;9.004;2023-06-22T10:21:34;99262.84;;;32.36;42.83
75996;BME280;64681;49.738;9.004;2023-06-22T10:24:00;99268.75;;;31.73;44.17
75996;BME280;64681;49.738;9.004;2023-06-22T10:26:35;99243.28;;;32.61;42.52
75996;BME280;64681;49.738;9.004;2023-06-22T10:29:03;99239.31;;;31.70;43.71
75996;BME280;64681;49.738;9.004;2023-06-22T10:31:29;99237.63;;;31.42;43.81
75996;BME280;64681;49.738;9.004;2023-06-22T10:33:55;99234.84;;;31.42;44.28
75996;BME280;64681;49.738;9.004;2023-06-22T10:36:22;99241.72;;;32.33;43.55
75996;BME280;64681;49.738;9.004;2023-06-22T10:38:48;99237.22;;;32.57;42.12
75996;BME280;64681;49.738;9.004;2023-06-22T10:41:14;99231.13;;;32.11;42.63
75996;BME280;64681;49.738;9.004;2023-06-22T10:43:40;99215.94;;;32.42;42.25
75996;BME280;64681;49.738;9.004;2023-06-22T10:46:06;99216.88;;;31.98;43.13
75996;BME280;64681;49.738;9.004;2023-06-22T10:48:31;99213.72;;;32.05;44.03
75996;BME280;64681;49.738;9.004;2023-06-22T10:50:57;99221.00;;;32.23;43.31
75996;BME280;64681;49.738;9.004;2023-06-22T10:53:22;99209.75;;;32.74;42.28
75996;BME280;64681;49.738;9.004;2023-06-22T10:55:48;99220.50;;;33.19;41.28
75996;BME280;64681;49.738;9.004;2023-06-22T10:58:18;99218.19;;;33.75;39.92
75996;BME280;64681;49.738;9.004;2023-06-22T11:00:45;99202.81;;;33.37;41.52
75996;BME280;64681;49.738;9.004;2023-06-22T11:03:10;99201.09;;;33.45;40.95
75996;BME280;64681;49.738;9.004;2023-06-22T11:05:36;99192.34;;;33.52;40.08
75996;BME280;64681;49.738;9.004;2023-06-22T11:08:02;99195.84;;;33.85;40.40
75996;BME280;64681;49.738;9.004;2023-06-22T11:10:27;99180.91;;;34.31;39.16
75996;BME280;64681;49.738;9.004;2023-06-22T11:12:52;99181.44;;;34.35;39.12
75996;BME280;64681;49.738;9.004;2023-06-22T11:15:18;99185.78;;;33.87;40.69
75996;BME280;64681;49.738;9.004;2023-06-22T11:17:44;99189.59;;;33.90;40.74
75996;BME280;64681;49.738;9.004;2023-06-22T11:20:09;99183.50;;;33.86;41.53
75996;BME280;64681;49.738;9.004;2023-06-22T11:22:40;99184.03;;;33.96;39.93
75996;BME280;64681;49.738;9.004;2023-06-22T11:25:06;99188.16;;;34.12;41.57
75996;BME280;64681;49.738;9.004;2023-06-22T11:27:32;99189.63;;;34.79;39.78
75996;BME280;64681;49.738;9.004;2023-06-22T11:29:58;99185.59;;;34.85;39.42
75996;BME280;64681;49.738;9.004;2023-06-22T11:32:24;99181.34;;;35.07;39.86
75996;BME280;64681;49.738;9.004;2023-06-22T11:34:50;99163.13;;;34.72;40.13
75996;BME280;64681;49.738;9.004;2023-06-22T11:37:16;99160.22;;;33.72;40.43
75996;BME280;64681;49.738;9.004;2023-06-22T11:39:42;99160.41;;;33.95;40.02
75996;BME280;64681;49.738;9.004;2023-06-22T11:42:08;99155.16;;;33.59;41.66
75996;BME280;64681;49.738;9.004;2023-06-22T11:44:34;99154.09;;;34.00;40.72
75996;BME280;64681;49.738;9.004;2023-06-22T11:47:00;99133.00;;;33.65;40.59
75996;BME280;64681;49.738;9.004;2023-06-22T11:49:29;99150.47;;;34.37;38.95
75996;BME280;64681;49.738;9.004;2023-06-22T11:51:54;99145.88;;;34.22;41.22
75996;BME280;64681;49.738;9.004;2023-06-22T11:54:20;99139.16;;;34.46;39.62
75996;BME280;64681;49.738;9.004;2023-06-22T11:56:55;99135.03;;;34.30;39.55
75996;BME280;64681;49.738;9.004;2023-06-22T11:59:22;99133.50;;;33.63;40.60
75996;BME280;64681;49.738;9.004;2023-06-22T12:01:47;99132.25;;;34.19;40.50
75996;BME280;64681;49.738;9.004;2023-06-22T12:04:14;99138.81;;;33.67;40.50
75996;BME280;64681;49.738;9.004;2023-06-22T12:06:39;99131.00;;;34.20;39.32
75996;BME280;64681;49.738;9.004;2023-06-22T12:09:07;99122.69;;;34.25;39.68
75996;BME280;64681;49.738;9.004;2023-06-22T12:11:33;99112.16;;;34.47;38.60
75996;BME280;64681;49.738;9.004;2023-06-22T12:13:58;99129.59;;;34.87;38.80
75996;BME280;64681;49.738;9.004;2023-06-22T12:16:30;99109.66;;;33.77;39.58
75996;BME280;64681;49.738;9.004;2023-06-22T12:18:56;99121.97;;;34.31;40.25
75996;BME280;64681;49.738;9.004;2023-06-22T12:21:21;99114.47;;;34.65;40.22
75996;BME280;64681;49.738;9.004;2023-06-22T12:23:47;99117.09;;;34.08;41.70
75996;BME280;64681;49.738;9.004;2023-06-22T12:26:12;99102.59;;;34.87;37.87
75996;BME280;64681;49.738;9.004;2023-06-22T12:28:38;99097.00;;;35.39;37.94
75996;BME280;64681;49.738;9.004;2023-06-22T12:31:03;99099.59;;;35.08;38.66
75996;BME280;64681;49.738;9.004;2023-06-22T12:33:29;99108.88;;;35.45;38.67
75996;BME280;64681;49.738;9.004;2023-06-22T12:35:56;99109.41;;;35.21;38.77
75996;BME280;64681;49.738;9.004;2023-06-22T12:38:22;99113.44;;;35.25;39.58
75996;BME280;64681;49.738;9.004;2023-06-22T12:40:47;99101.94;;;35.80;39.53
75996;BME280;64681;49.738;9.004;2023-06-22T12:43:14;99103.31;;;35.45;38.68
75996;BME280;64681;49.738;9.004;2023-06-22T12:45:40;99111.50;;;35.90;38.66
75996;BME280;64681;49.738;9.004;2023-06-22T12:48:06;99105.88;;;36.07;37.88
75996;BME280;64681;49.738;9.004;2023-06-22T12:50:31;99110.50;;;35.93;37.82
75996;BME280;64681;49.738;9.004;2023-06-22T12:52:57;99097.56;;;36.49;37.62
75996;BME280;64681;49.738;9.004;2023-06-22T12:55:23;99108.47;;;37.08;37.60
75996;BME280;64681;49.738;9.004;2023-06-22T12:57:48;99093.09;;;37.51;35.89
75996;BME280;64681;49.738;9.004;2023-06-22T13:00:14;99084.31;;;37.66;34.54
75996;BME280;64681;49.738;9.004;2023-06-22T13:02:42;99102.69;;;36.70;35.16
75996;BME280;64681;49.738;9.004;2023-06-22T13:05:07;99111.16;;;37.19;36.72
75996;BME280;64681;49.738;9.004;2023-06-22T13:07:33;99093.91;;;37.21;34.77
75996;BME280;64681;49.738;9.004;2023-06-22T13:09:59;99093.91;;;36.96;35.12
75996;BME280;64681;49.738;9.004;2023-06-22T13:12:25;99086.69;;;36.04;35.96
75996;BME280;64681;49.738;9.004;2023-06-22T13:14:50;99076.97;;;36.27;35.95
75996;BME280;64681;49.738;9.004;2023-06-22T13:17:15;99105.31;;;36.20;36.31
75996;BME280;64681;49.738;9.004;2023-06-22T13:19:41;99094.50;;;36.53;37.06
75996;BME280;64681;49.738;9.004;2023-06-22T13:22:32;99101.72;;;36.67;38.04
75996;BME280;64681;49.738;9.004;2023-06-22T13:24:59;99084.88;;;36.84;37.04
75996;BME280;64681;49.738;9.004;2023-06-22T13:27:25;99092.97;;;37.13;37.30
75996;BME280;64681;49.738;9.004;2023-06-22T13:29:51;99094.88;;;36.99;37.70
75996;BME280;64681;49.738;9.004;2023-06-22T13:32:16;99091.00;;;36.77;35.95
75996;BME280;64681;49.738;9.004;2023-06-22T13:34:42;99069.13;;;36.93;34.23
75996;BME280;64681;49.738;9.004;2023-06-22T13:37:08;99073.94;;;36.62;37.84
75996;BME280;64681;49.738;9.004;2023-06-22T13:39:34;99074.78;;;36.51;38.73
75996;BME280;64681;49.738;9.004;2023-06-22T13:42:01;99090.72;;;36.50;36.45
75996;BME280;64681;49.738;9.004;2023-06-22T13:44:27;99068.88;;;35.76;36.29
75996;BME280;64681;49.738;9.004;2023-06-22T13:46:57;99076.66;;;35.02;38.35
75996;BME280;64681;49.738;9.004;2023-06-22T13:49:23;99066.81;;;34.78;40.33
75996;BME280;64681;49.738;9.004;2023-06-22T13:51:48;99058.47;;;34.33;38.39
75996;BME280;64681;49.738;9.004;2023-06-22T13:54:14;99045.78;;;33.92;41.38
75996;BME280;64681;49.738;9.004;2023-06-22T13:56:40;99057.00;;;34.83;38.27
75996;BME280;64681;49.738;9.004;2023-06-22T13:59:05;99044.66;;;34.55;39.79
75996;BME280;64681;49.738;9.004;2023-06-22T14:01:34;99032.53;;;34.93;38.66
75996;BME280;64681;49.738;9.004;2023-06-22T14:04:00;99032.78;;;34.89;36.91